Viernes, 06 de Marzo del 2015

portal contactenos mapa del sitio buscar Revisar Correo Corporativo

|Reporte METAR por Reginal » ||Reporte TAF por Reginal » ||Reporte METAR, TAF y SIN覲TICO »

Reporte METAR por Regional

|| La Paz || Santa Cruz || Cochabamba || Beni - Pando ||

Informe METAR emitido cada hora.

Regional La Paz

ESTACIÓN

AEROPUERTO

HORA UTC

DESCRIPCIÓN

SLRY

Reyes

14-18S|67-21W

13:00

SLRY 061300Z 00000KT 9999 BKN008 OVC080 25/24 Q1015 A2998 HR96 RWY WET OPR 1 000M C206=

SLRQ

Rurrenabaque

14-25S|67-29W

14:00

SLRQ 061400Z 33004KT 6000 -RA SCT004 BKN010 25/25 Q1014 A2994 HR97 REDZ=

SLAP

Apolo

14-44S|68-24W

-

Mensaje no Recibido

SLSB

San Borja

14-51S|66-44W

14:00

SLSB 061400Z 00000KT 9999 -RA BKN008 OVC070 25/24 Q1014 A2995 HR95 RWY WET INOP=

SLLP

Internaci贸nal El Alto

16-08S|68-10W

14:00

SLLP 061400Z 11004KT 9999 FEW007 SCT015 BKN070 11/06 Q1038 A3067 628.6 P4453 HR71 NOSIG=

SLCN

Chara帽a

17-35S|69-25W

-

Mensaje no Recibido

SLOR

Oruro

17-57S|67-04W

14:00

SLOR 061400Z 36007KT 9999 SCT015 BKN200 14/07 Q1036 A3060 656.8 AC HR66=

SLUY

Uyuni

20-27S|62-52W

14:00

SLUY 061400Z 00000KT 9999 SCT015 SCT023 FEW025CB BKN070 14/10 Q1035 A3058 659.3 CB N/NE/E/NW CI HR76=

Regional Cochabamba

ESTACIÓN

AEROPUERTO

HORA UTC

DESCRIPCIÓN

SLCB

Cochabamba

17-25S|66-10W

14:00

SLCB 061400Z 00000KT 9999 SCT023 FEW027TCU BKN200 19/12 Q1027 A3035 753.4 HR64 TCU/S/SW FU AC NOSIG=

SLSU

Sucre

19-00S|65-17W

14:00

SLSU 061400Z 00000KT 9999 FEW013 SCT017 16/12 Q1032 A3047 HR76 AC=

SLPO

Potos铆

19-32S|65-43W

14:00

SLPO 061400Z 00000KT 9999 BKN017 SCT200 09/04 Q1041 A3074 HR71=

SLAG

Monteagudo

19-49S|63-58W

14:00

SLAG 061400Z 00000KT 9999 BKN020 OVC070 25/21 Q1020 A3012 HR79 RWY CLSD=

SLVM

Villamontes

21-15S|63-24W

14:00

SLVM 061400Z 00000KT 9999 SCT017 SCT200 30/23 Q1013 A2991 HR68=

SLTJ

Tarija

21-33S|64-42W

14:00

SLTJ 061400Z 00000KT 9999 FEW030 FEW033TCU BKN200 23/19 Q1022 A3019 HR73 TCU E/S=

SLYA

Yacuiba

21-57S|63-39W

14:00

SLYA 061400Z 00000KT 9999 FEW023 BKN200 29/25 Q1015 A3000 HR79 AC=

SLBJ

Bermejo

22-46S|64-18W

14:00

SLBJ 061400Z 18006KT 9999 SCT013 BKN200 28/24 Q1011 A2985 HR83=

Regional Santa Cruz

ESTACIÓN

AEROPUERTO

HORA UTC

DESCRIPCIÓN

SLAS

Ascenci贸n de Guarayos

15-55S|63-09W

14:00

SLAS 061400Z 32006KT 9999 BKN013 OVC200 26/23 Q1016 A3000 HR85 RWY WET OPR C210=

SLCP

Concepci贸n

16-08S|62-01W

14:00

SLCP 061400Z 36004KT 9999 BKN015 BKN070 26/23 Q1017 A3003 HR85 RWY NML=

SLJV

San Javier

16-16S|62-28W

14:00

SLJV 061400Z 36006KT 9999 SCT012 BKN200 25/24 Q1014 A2994 HR90 RWY NML=

SLTI

San Mat铆as

16-20S|58-24W

14:00

SLTI 061400Z 00000KT 9999 NSC 29/25 Q1020 A3012 HR79 CI RWY NML =

SLSI

San Ignacio de Velasco

16-23S|60-57W

14:00

SLSI 061400Z 00000KT 9999 SCT017 26/23 Q1015 A2997 HR82 RWY NML =

SLVR

Internaci贸nal Viru Viru

17-38S|63-08W

14:00

SLVR 061400Z 35008KT 9999 BKN006 BKN070 25/24 Q1015 A2999 HR93 NOSIG=

SLET

El Trompillo

17-48S|63-10W

14:00

SLET 061400Z 33008KT 9999 SCT010 BKN015 BKN080 26/23 Q1014 A2995 HR83 NOSIG=

SLJE

San Jos茅 de Chiquitos

17-49S|60-44W

14:00

SLJE 061400Z 00000KT 9999 BKN010 27/25 Q1017 A3003 HR88 RWY WET INOP=

SLRB

Robor茅

18-19S|59-45W

14:00

SLRB 061400Z 36012KT 9999 FEW020 SCT070 29/24 Q1017 A3003 HR73 RWY NML=

SLVG

Valle Grande

18-28S|64-05W

14:00

SLVG 061400Z 00000KT 9999 SCT023 BKN200 19/15 Q1026 A3030 HR74 RWY WET OPR=

SLPS

Puerto Su谩rez

18-58S|57-49W

14:00

SLPS 061400Z 36004KT 9999 SCT070 31/25 Q1013 A2992 HR73=

SLCA

Camiri

20-00S|63-31W

14:00

SLCA 061400Z 00000KT 9999 SCT033 27/20 Q1017 A3003 HR67 RWY HUM OPR C210=

Regional Beni

ESTACIÓN

AEROPUERTO

HORA UTC

DESCRIPCIÓN

SLGM

Guayaramer铆n

10-49S|65-20W

13:00

SLGM 061300Z 02004KT 5000 -RA BKN005 OVC070 23/23 Q1014 A2996 HR98=

SLRI

Riberalta

11-00S|66-04W

14:00

SLRI 061400Z 12006KT 5000 VCSH BKN007 FEW020CB OVC070 25/23 Q1015 A2998 HR90 CB/SH N/NE/E/NW RWY OPR 1.250M=

SLCO

Cobija

11-02S|68-47W

14:00

SLCO 061400Z 27004KT 9999 FEW008 BKN080 BKN200 26/23 Q1013 A2994 986.3 HR85=

SLJO

San Joaquin

13-03S|64-39W

13:00

SLJO 061300Z 00000KT 9999 SCT010 BKN080 25/24 Q1014 A2994 HR93 RWY HUM OPR=

SLMG

San Magdalena

13-15S|64-03W

13:00

SLMG 061300Z 00000KT 9999 SCT010 BKN080 26/24 Q1013 A2994 HR92 RWY HUM OPR=

SLRA

San Ram贸n

13-15S|64-36W

13:00

SLRA 061300Z 32006KT 6000 VCSH SCT008 FEW023CB OVC070 25/24 Q1013 A2994 HR93 CB/SH N/NE/W/NW RWY OPR C206=

SLBU

Baures

13-39S|63-42W

13:00

SLBU 061300Z 03004KT 9999 SCT015 BKN080 26/24 Q1015 A2998 HR92 RWY OPR C212=

SLSA

Santa Ana de Yacuma

13-45S|65-26W

14:00

SLSA 061400Z 32004KT 8000 -RA SCT005 OVC070 23/23 Q1013 A2992 HR97=

SLSR

Santa Rosa

14-04S|66-47W

13:00

SLSR 061300Z 35005KT 9999 SCT010 FEW023CB SCT070 OVC200 25/23 Q1010 A2983 HR91 CB NE/E/SE RWY NML=

SLTR

Trinidad

14-49S|64-54W

14:00

SLTR 061400Z 32007KT 8000 VCSH SCT007 FEW020CB BKN070 27/24 Q1014 A2996 996.0 HR88 CB N SH N/W TEMPO SHRA=

SLSM

San Ignacio de Moxos

14-57S|65-38W

13:00

SLSM 061300Z 36004KT 8000 VCSH BKN006 FEW023CB OVC070 25/24 Q1012 A2990 HR93 CB/SH N/NE RWY OPR C210=